createdAt,value
2022-10-18T00:01:02.993Z,99.90
2022-10-18T00:03:30.693Z,99.90
2022-10-18T00:05:58.526Z,99.90
2022-10-18T00:08:26.383Z,99.90
2022-10-18T00:10:53.958Z,99.90
2022-10-18T00:13:21.887Z,99.90
2022-10-18T00:16:01.674Z,99.90
2022-10-18T00:18:29.662Z,99.90
2022-10-18T00:21:02.734Z,99.90
2022-10-18T00:23:31.859Z,99.90
2022-10-18T00:26:11.183Z,99.90
2022-10-18T00:28:39.630Z,99.90
2022-10-18T00:31:15.195Z,99.90
2022-10-18T00:33:47.378Z,99.90
2022-10-18T00:36:14.904Z,99.90
2022-10-18T00:38:43.382Z,99.90
2022-10-18T00:41:14.140Z,99.90
2022-10-18T00:43:52.166Z,99.90
2022-10-18T00:46:19.774Z,99.90
2022-10-18T00:48:48.387Z,99.90
2022-10-18T00:51:18.556Z,99.90
2022-10-18T00:53:46.364Z,99.90
2022-10-18T00:56:14.162Z,99.90
2022-10-18T00:58:42.442Z,99.90
2022-10-18T01:01:10.211Z,99.90
2022-10-18T01:03:38.292Z,99.90
2022-10-18T01:06:08.848Z,99.90
2022-10-18T01:09:08.510Z,99.90
2022-10-18T01:11:55.076Z,99.90
2022-10-18T01:14:47.216Z,99.90
2022-10-18T01:17:59.654Z,99.90
2022-10-18T01:20:45.299Z,99.90
2022-10-18T01:23:31.715Z,99.90
2022-10-18T01:26:37.935Z,99.90
2022-10-18T01:29:24.056Z,99.90
2022-10-18T01:31:59.972Z,99.90
2022-10-18T01:34:32.115Z,99.90
2022-10-18T01:37:02.988Z,99.90
2022-10-18T01:39:38.654Z,99.90
2022-10-18T01:42:09.979Z,99.90
2022-10-18T01:44:39.632Z,99.90
2022-10-18T01:47:09.633Z,99.90
2022-10-18T01:49:37.301Z,99.90
2022-10-18T01:52:05.062Z,99.90
2022-10-18T01:54:39.131Z,99.90
2022-10-18T01:57:33.110Z,99.90
2022-10-18T02:00:16.919Z,99.90
2022-10-18T02:03:05.656Z,99.90
2022-10-18T02:05:56.261Z,99.90
2022-10-18T02:08:24.109Z,99.90
2022-10-18T02:10:58.874Z,99.90
2022-10-18T02:13:44.084Z,99.90
2022-10-18T02:16:17.144Z,99.90
2022-10-18T02:18:53.441Z,99.90
2022-10-18T02:21:22.619Z,99.90
2022-10-18T02:23:50.629Z,99.90
2022-10-18T02:26:18.612Z,99.90
2022-10-18T02:28:46.446Z,99.90
2022-10-18T02:31:13.975Z,99.90
2022-10-18T02:34:03.244Z,99.90
2022-10-18T02:36:59.372Z,99.90
2022-10-18T02:39:48.482Z,99.90
2022-10-18T02:42:16.468Z,99.90
2022-10-18T02:44:44.034Z,99.90
2022-10-18T02:47:12.413Z,99.90
2022-10-18T02:49:40.154Z,99.90
2022-10-18T02:52:07.711Z,99.90
2022-10-18T02:54:35.219Z,99.90
2022-10-18T02:57:02.754Z,99.90
2022-10-18T02:59:30.273Z,99.90
2022-10-18T03:01:57.801Z,99.90
2022-10-18T03:04:25.414Z,99.90
2022-10-18T03:06:52.963Z,99.90
2022-10-18T03:09:20.528Z,99.90
2022-10-18T03:11:48.072Z,99.90
2022-10-18T03:14:15.676Z,99.90
2022-10-18T03:16:43.187Z,99.90
2022-10-18T03:19:10.768Z,99.90
2022-10-18T03:21:38.243Z,99.90
2022-10-18T03:24:06.278Z,99.90
2022-10-18T03:26:33.865Z,99.90
2022-10-18T03:29:01.452Z,99.90
2022-10-18T03:33:56.618Z,99.90
2022-10-18T03:36:24.381Z,99.90
2022-10-18T03:38:51.907Z,99.90
2022-10-18T03:41:20.743Z,99.90
2022-10-18T03:43:48.402Z,99.90
2022-10-18T03:46:15.968Z,99.90
2022-10-18T03:48:43.507Z,99.90
2022-10-18T03:51:11.207Z,99.90
2022-10-18T03:53:38.938Z,99.90
2022-10-18T03:56:06.670Z,99.90
2022-10-18T04:01:07.133Z,99.90
2022-10-18T04:03:34.655Z,99.90
2022-10-18T04:06:03.598Z,99.90
2022-10-18T04:08:31.190Z,99.90
2022-10-18T04:10:58.763Z,99.90
2022-10-18T04:13:26.343Z,99.90
2022-10-18T04:15:53.920Z,99.90
2022-10-18T04:18:21.401Z,99.90
2022-10-18T04:20:48.962Z,99.90
2022-10-18T04:23:16.549Z,99.90
2022-10-18T04:28:16.457Z,99.90
2022-10-18T04:30:44.034Z,99.90
2022-10-18T04:33:11.523Z,99.90
2022-10-18T04:35:39.009Z,99.90
2022-10-18T04:38:06.594Z,99.90
2022-10-18T04:40:34.093Z,99.90
2022-10-18T04:43:01.577Z,99.90
2022-10-18T04:45:29.147Z,99.90
2022-10-18T04:47:56.685Z,99.90
2022-10-18T04:50:24.243Z,99.90
2022-10-18T04:52:53.593Z,99.90
2022-10-18T04:55:21.190Z,99.90
2022-10-18T04:57:48.851Z,99.90
2022-10-18T05:00:16.453Z,99.90
2022-10-18T05:02:43.938Z,99.90
2022-10-18T05:05:14.013Z,99.90
2022-10-18T05:07:42.018Z,99.90
2022-10-18T05:10:09.902Z,99.90
2022-10-18T05:12:37.379Z,99.90
2022-10-18T05:15:05.331Z,99.90
2022-10-18T05:17:32.899Z,99.90
2022-10-18T05:20:00.556Z,99.90
2022-10-18T05:22:28.211Z,99.90
2022-10-18T05:24:55.751Z,99.90
2022-10-18T05:27:23.259Z,99.90
2022-10-18T05:29:50.820Z,99.90
2022-10-18T05:32:18.338Z,99.90
2022-10-18T05:34:45.993Z,99.90
2022-10-18T05:37:13.751Z,99.90
2022-10-18T05:39:41.359Z,99.90
2022-10-18T05:42:08.896Z,99.90
2022-10-18T05:44:36.453Z,99.90
2022-10-18T05:47:04.092Z,99.90
2022-10-18T05:49:31.621Z,99.90
2022-10-18T05:51:59.315Z,99.90
2022-10-18T05:54:26.943Z,99.90
2022-10-18T05:56:54.426Z,99.90
2022-10-18T05:59:22.064Z,99.90
2022-10-18T06:01:49.551Z,99.90
2022-10-18T06:04:17.955Z,99.90
2022-10-18T06:06:45.537Z,99.90
2022-10-18T06:09:13.027Z,99.90
2022-10-18T06:11:40.602Z,99.90
2022-10-18T06:14:08.431Z,99.90
2022-10-18T06:19:04.671Z,99.90
2022-10-18T06:21:32.158Z,99.90
2022-10-18T06:24:00.030Z,99.90
2022-10-18T06:26:28.355Z,99.90
2022-10-18T06:28:56.098Z,99.90
2022-10-18T06:31:23.741Z,99.90
2022-10-18T06:33:51.316Z,99.90
2022-10-18T06:36:22.248Z,99.90
2022-10-18T06:38:50.898Z,99.90
2022-10-18T06:41:19.363Z,99.90
2022-10-18T06:43:51.025Z,99.90
2022-10-18T06:46:19.184Z,99.90
2022-10-18T06:48:47.519Z,99.90
2022-10-18T06:51:15.497Z,99.90
2022-10-18T06:53:58.754Z,99.90
2022-10-18T06:56:30.958Z,99.90
2022-10-18T07:01:31.420Z,99.90
2022-10-18T07:03:59.159Z,99.90
2022-10-18T07:06:26.692Z,99.90
2022-10-18T07:08:54.283Z,99.90
2022-10-18T07:11:25.166Z,99.90
2022-10-18T07:13:54.583Z,99.90
2022-10-18T07:16:22.419Z,99.90
2022-10-18T07:18:51.657Z,99.90
2022-10-18T07:21:24.414Z,99.90
2022-10-18T07:23:52.619Z,99.90
2022-10-18T07:26:32.087Z,99.90
2022-10-18T07:29:04.435Z,99.90
2022-10-18T07:31:33.369Z,99.90
2022-10-18T07:34:01.050Z,99.90
2022-10-18T07:36:28.601Z,99.90
2022-10-18T07:38:56.206Z,99.90
2022-10-18T07:41:23.717Z,99.90
2022-10-18T07:43:52.721Z,99.90
2022-10-18T07:46:22.153Z,99.90
2022-10-18T07:48:50.456Z,99.90
2022-10-18T07:51:20.230Z,99.90
2022-10-18T07:53:48.178Z,99.90
2022-10-18T07:56:21.068Z,99.90
2022-10-18T07:58:52.496Z,99.90
2022-10-18T08:01:22.572Z,99.90
2022-10-18T08:03:50.647Z,99.90
2022-10-18T08:06:20.322Z,99.90
2022-10-18T08:08:48.232Z,99.90
2022-10-18T08:11:18.227Z,99.90
2022-10-18T08:13:46.096Z,99.90
2022-10-18T08:16:21.057Z,99.90
2022-10-18T08:18:49.302Z,99.90
2022-10-18T08:21:18.368Z,99.90
2022-10-18T08:23:46.238Z,99.90
2022-10-18T08:26:17.536Z,99.90
2022-10-18T08:28:53.692Z,99.90
2022-10-18T08:31:26.220Z,99.90
2022-10-18T08:33:56.310Z,99.90
2022-10-18T08:36:23.956Z,99.90
2022-10-18T08:38:52.029Z,99.90
2022-10-18T08:41:37.794Z,99.90
2022-10-18T08:44:14.385Z,99.90
2022-10-18T08:46:46.209Z,99.90
2022-10-18T08:49:33.371Z,99.90
2022-10-18T08:52:01.775Z,99.90
2022-10-18T08:55:08.481Z,99.90
2022-10-18T08:57:36.435Z,99.90
2022-10-18T09:00:25.423Z,99.90
2022-10-18T09:03:04.810Z,99.90
2022-10-18T09:05:54.866Z,99.90
2022-10-18T09:08:31.530Z,99.90
2022-10-18T09:11:25.358Z,99.90
2022-10-18T09:14:11.734Z,99.90
2022-10-18T09:16:39.215Z,99.10
2022-10-18T09:19:34.139Z,99.00
2022-10-18T09:22:49.816Z,97.90
2022-10-18T09:25:40.549Z,96.40
2022-10-18T09:28:26.371Z,96.30
2022-10-18T09:31:18.953Z,94.80
2022-10-18T09:34:13.257Z,92.60
2022-10-18T09:36:41.704Z,91.50
2022-10-18T09:39:14.216Z,91.50
2022-10-18T09:41:54.349Z,90.80
2022-10-18T09:44:38.130Z,90.00
2022-10-18T09:47:16.876Z,88.00
2022-10-18T09:49:52.844Z,85.90
2022-10-18T09:52:31.972Z,84.30
2022-10-18T09:55:09.532Z,81.80
2022-10-18T09:57:51.383Z,79.90
2022-10-18T10:00:26.680Z,76.80
2022-10-18T10:02:54.579Z,75.80
2022-10-18T10:05:22.196Z,74.30
2022-10-18T10:07:49.765Z,71.80
2022-10-18T10:10:23.567Z,70.50
2022-10-18T10:13:03.205Z,68.50
2022-10-18T10:15:35.326Z,65.70
2022-10-18T10:18:39.218Z,65.10
2022-10-18T10:21:13.299Z,62.40
2022-10-18T10:23:50.971Z,62.70
2022-10-18T10:26:34.293Z,61.10
2022-10-18T10:29:02.048Z,61.00
2022-10-18T10:31:33.843Z,60.30
2022-10-18T10:34:15.036Z,59.20
2022-10-18T10:36:50.715Z,58.30
2022-10-18T10:39:20.314Z,57.50
2022-10-18T10:41:49.056Z,56.80
2022-10-18T10:44:22.779Z,56.60
2022-10-18T10:46:51.894Z,55.90
2022-10-18T10:52:33.716Z,55.50
2022-10-18T10:55:23.523Z,54.50
2022-10-18T10:57:52.892Z,55.10
2022-10-18T11:00:44.735Z,53.60
2022-10-18T11:03:28.044Z,52.20
2022-10-18T11:05:58.769Z,52.10
2022-10-18T11:08:29.951Z,51.70
2022-10-18T11:11:09.518Z,51.70
2022-10-18T11:13:53.395Z,50.30
2022-10-18T11:17:08.393Z,49.30
2022-10-18T11:19:59.106Z,49.30
2022-10-18T11:22:30.930Z,48.80
2022-10-18T11:24:58.703Z,48.90
2022-10-18T11:27:35.833Z,47.90
2022-10-18T11:30:15.591Z,47.70
2022-10-18T11:32:54.930Z,47.80
2022-10-18T11:35:43.722Z,47.50
2022-10-18T11:38:11.206Z,46.70
2022-10-18T11:40:51.078Z,46.50
2022-10-18T11:44:02.266Z,45.50
2022-10-18T11:46:41.811Z,44.40
2022-10-18T11:49:26.151Z,44.60
2022-10-18T11:52:15.263Z,44.40
2022-10-18T11:55:01.238Z,44.00
2022-10-18T11:57:39.967Z,43.70
2022-10-18T12:00:33.618Z,42.80
2022-10-18T12:03:07.166Z,40.70
2022-10-18T12:05:38.699Z,40.80
2022-10-18T12:08:12.407Z,39.50
2022-10-18T12:10:52.670Z,40.30
2022-10-18T12:13:40.702Z,42.50
2022-10-18T12:16:09.509Z,44.20
2022-10-18T12:18:47.615Z,44.10
2022-10-18T12:21:16.393Z,43.50
2022-10-18T12:24:18.815Z,43.10
2022-10-18T12:26:50.057Z,42.50
2022-10-18T12:29:28.074Z,42.10
2022-10-18T12:32:23.967Z,41.30
2022-10-18T12:35:09.314Z,39.90
2022-10-18T12:38:01.736Z,39.50
2022-10-18T12:40:37.990Z,39.50
2022-10-18T12:43:21.184Z,39.50
2022-10-18T12:45:54.128Z,39.00
2022-10-18T12:48:33.727Z,38.90
2022-10-18T12:51:05.400Z,39.20
2022-10-18T12:53:33.958Z,39.00
2022-10-18T12:56:29.438Z,39.10
2022-10-18T12:59:15.411Z,38.80
2022-10-18T13:01:52.693Z,38.40
2022-10-18T13:04:29.545Z,37.90
2022-10-18T13:06:59.838Z,37.50
2022-10-18T13:09:35.969Z,37.80
2022-10-18T13:12:09.475Z,38.10
2022-10-18T13:15:07.302Z,37.80
2022-10-18T13:18:04.292Z,37.70
2022-10-18T13:20:50.459Z,36.60
2022-10-18T13:23:49.375Z,36.30
2022-10-18T13:26:36.081Z,36.30
2022-10-18T13:29:28.379Z,35.90
2022-10-18T13:32:01.375Z,35.90
2022-10-18T13:34:34.911Z,36.40
2022-10-18T13:37:10.294Z,36.40
2022-10-18T13:39:39.779Z,37.10
2022-10-18T13:42:20.324Z,37.40
2022-10-18T13:44:47.891Z,37.50
2022-10-18T13:47:35.263Z,36.90
2022-10-18T13:50:18.456Z,36.60
2022-10-18T13:53:13.237Z,36.80
2022-10-18T13:56:10.308Z,37.00
2022-10-18T13:58:49.300Z,37.20
2022-10-18T14:02:10.791Z,37.30
2022-10-18T14:05:25.087Z,36.70
2022-10-18T14:08:04.731Z,35.60
2022-10-18T14:11:04.591Z,35.00
2022-10-18T14:13:42.002Z,34.00
2022-10-18T14:16:38.819Z,34.40
2022-10-18T14:19:21.973Z,34.30
2022-10-18T14:21:59.359Z,34.10
2022-10-18T14:24:29.592Z,34.20
2022-10-18T14:27:19.858Z,33.90
2022-10-18T14:29:48.794Z,34.30
2022-10-18T14:32:31.643Z,34.70
2022-10-18T14:35:31.534Z,34.80
2022-10-18T14:37:49.366Z,35.30
2022-10-18T14:40:29.995Z,35.90
2022-10-18T14:43:06.830Z,36.30
2022-10-18T14:45:34.334Z,36.80
2022-10-18T14:48:18.318Z,38.00
2022-10-18T14:50:49.847Z,38.70
2022-10-18T14:53:21.959Z,38.50
2022-10-18T14:56:00.796Z,38.50
2022-10-18T14:58:28.886Z,39.30
2022-10-18T15:00:57.146Z,39.90
2022-10-18T15:03:26.212Z,40.50
2022-10-18T15:05:59.656Z,41.20
2022-10-18T15:08:35.580Z,41.00
2022-10-18T15:11:03.704Z,41.30
2022-10-18T15:13:34.556Z,41.50
2022-10-18T15:16:02.785Z,41.20
2022-10-18T15:21:24.366Z,42.10
2022-10-18T15:23:52.500Z,42.60
2022-10-18T15:26:25.373Z,43.00
2022-10-18T15:28:56.651Z,43.90
2022-10-18T15:31:35.130Z,44.10
2022-10-18T15:34:14.198Z,44.30
2022-10-18T15:39:23.513Z,44.20
2022-10-18T15:41:53.210Z,44.20
2022-10-18T15:44:23.578Z,44.80
2022-10-18T15:46:56.737Z,44.80
2022-10-18T15:49:24.208Z,44.90
2022-10-18T15:52:39.534Z,45.60
2022-10-18T15:55:32.982Z,46.80
2022-10-18T15:58:06.038Z,48.10
2022-10-18T16:00:33.601Z,49.00
2022-10-18T16:03:01.272Z,49.70
2022-10-18T16:05:28.816Z,51.00
2022-10-18T16:07:56.499Z,51.20
2022-10-18T16:10:24.171Z,52.00
2022-10-18T16:12:51.699Z,53.30
2022-10-18T16:15:19.414Z,54.70
2022-10-18T16:17:48.326Z,55.90
2022-10-18T16:20:22.145Z,56.90
2022-10-18T16:22:49.773Z,57.70
2022-10-18T16:25:17.586Z,58.50
2022-10-18T16:27:45.128Z,59.40
2022-10-18T16:30:17.095Z,60.20
2022-10-18T16:32:46.881Z,61.10
2022-10-18T16:35:15.990Z,62.10
2022-10-18T16:37:44.137Z,63.60
2022-10-18T16:40:26.407Z,64.80
2022-10-18T16:42:54.386Z,66.30
2022-10-18T16:45:22.361Z,67.10
2022-10-18T16:47:50.253Z,70.30
2022-10-18T16:50:20.535Z,73.80
2022-10-18T16:52:48.506Z,75.90
2022-10-18T16:55:25.073Z,78.00
2022-10-18T16:57:52.992Z,79.30
2022-10-18T17:00:23.059Z,81.60
2022-10-18T17:02:50.923Z,83.90
2022-10-18T17:05:19.309Z,86.40
2022-10-18T17:07:47.624Z,89.70
2022-10-18T17:10:19.575Z,91.00
2022-10-18T17:12:47.183Z,92.20
2022-10-18T17:15:14.820Z,93.20
2022-10-18T17:20:20.310Z,94.50
2022-10-18T17:22:48.861Z,94.90
2022-10-18T17:25:18.467Z,95.30
2022-10-18T17:27:46.691Z,95.60
2022-10-18T17:30:15.043Z,95.90
2022-10-18T17:32:44.644Z,96.40
2022-10-18T17:35:12.773Z,96.90
2022-10-18T17:37:44.052Z,97.30
2022-10-18T17:40:13.661Z,98.10
2022-10-18T17:42:41.222Z,98.50
2022-10-18T17:45:09.579Z,99.00
2022-10-18T17:47:37.115Z,99.20
2022-10-18T17:50:04.962Z,99.40
2022-10-18T17:52:32.656Z,99.60
2022-10-18T17:55:00.228Z,99.90
2022-10-18T17:59:56.367Z,99.90
2022-10-18T18:02:23.886Z,99.90
2022-10-18T18:04:53.714Z,99.90
2022-10-18T18:07:21.366Z,99.90
2022-10-18T18:09:49.007Z,99.90
2022-10-18T18:14:45.122Z,99.90
2022-10-18T18:29:32.305Z,99.90
2022-10-18T18:31:59.848Z,99.90
2022-10-18T18:34:27.354Z,99.90
2022-10-18T18:36:55.314Z,99.90
2022-10-18T18:41:53.127Z,99.90
2022-10-18T18:44:22.030Z,99.90
2022-10-18T18:46:49.642Z,99.90
2022-10-18T18:49:17.446Z,99.90
2022-10-18T18:51:45.446Z,99.90
2022-10-18T18:54:15.098Z,99.90
2022-10-18T18:59:14.199Z,99.90
2022-10-18T19:01:42.478Z,99.90
2022-10-18T19:14:15.580Z,99.90
2022-10-18T19:16:51.540Z,99.90
2022-10-18T19:24:23.685Z,99.90
2022-10-18T19:26:52.252Z,99.90
2022-10-18T19:29:28.693Z,99.90
2022-10-18T19:31:58.618Z,99.90
2022-10-18T19:34:28.982Z,99.90
2022-10-18T19:44:24.332Z,99.90
2022-10-18T19:54:17.751Z,99.90
2022-10-18T19:56:45.686Z,99.90
2022-10-18T19:59:15.623Z,99.90
2022-10-18T20:01:44.126Z,99.90
2022-10-18T20:11:41.263Z,99.90
2022-10-18T20:24:06.499Z,99.90
2022-10-18T20:31:35.610Z,99.90
2022-10-18T20:34:05.271Z,99.90
2022-10-18T20:36:33.840Z,99.90
2022-10-18T20:39:01.506Z,99.90
2022-10-18T20:44:04.956Z,99.90
2022-10-18T20:49:01.752Z,99.90
2022-10-18T20:53:57.284Z,99.90
2022-10-18T21:03:56.723Z,99.90
2022-10-18T21:06:42.307Z,99.90
2022-10-18T21:14:17.123Z,99.90
2022-10-18T21:16:45.850Z,99.90
2022-10-18T21:19:22.376Z,99.90
2022-10-18T21:31:52.709Z,99.90
2022-10-18T21:41:47.106Z,99.90
2022-10-18T21:49:11.714Z,99.90
2022-10-18T21:51:40.158Z,99.90
2022-10-18T22:01:36.110Z,99.90
2022-10-18T22:04:06.542Z,99.90
2022-10-18T22:11:40.396Z,99.90
2022-10-18T22:14:08.085Z,99.90
2022-10-18T22:16:35.695Z,99.90
2022-10-18T22:19:04.671Z,99.90
2022-10-18T22:26:30.810Z,99.90
2022-10-18T22:29:04.755Z,99.90
2022-10-18T22:34:05.162Z,99.90
2022-10-18T22:36:33.762Z,99.90
2022-10-18T22:39:01.676Z,99.90
2022-10-18T22:41:29.183Z,99.90
2022-10-18T22:56:22.910Z,99.90
2022-10-18T23:06:31.691Z,99.90
2022-10-18T23:09:01.009Z,99.90
2022-10-18T23:11:29.150Z,99.90
2022-10-18T23:16:25.159Z,99.90
2022-10-18T23:21:25.741Z,99.90
2022-10-18T23:26:24.683Z,99.90
2022-10-18T23:31:23.711Z,99.90
2022-10-18T23:43:45.247Z,99.90
2022-10-18T23:46:13.758Z,99.90
2022-10-18T23:51:10.083Z,99.90
2022-10-18T23:53:37.876Z,99.90
2022-10-18T23:56:06.943Z,99.90
2022-10-18T23:58:35.668Z,99.90
